createdAt,value
2017-10-12T00:01:26.306Z,1.93
2017-10-12T00:03:53.743Z,2.03
2017-10-12T00:06:21.255Z,2.00
2017-10-12T00:08:48.712Z,1.87
2017-10-12T00:11:16.167Z,2.50
2017-10-12T00:13:43.616Z,2.00
2017-10-12T00:16:11.076Z,2.50
2017-10-12T00:18:38.526Z,2.20
2017-10-12T00:21:06.004Z,2.00
2017-10-12T00:23:33.455Z,2.13
2017-10-12T00:26:00.913Z,2.33
2017-10-12T00:28:28.370Z,2.63
2017-10-12T00:30:55.828Z,2.63
2017-10-12T00:33:23.284Z,2.20
2017-10-12T00:35:50.729Z,1.70
2017-10-12T00:38:18.190Z,2.40
2017-10-12T00:40:45.634Z,2.53
2017-10-12T00:43:13.099Z,2.17
2017-10-12T00:45:40.550Z,2.10
2017-10-12T00:48:07.994Z,1.70
2017-10-12T00:50:35.449Z,1.67
2017-10-12T00:53:02.895Z,2.60
2017-10-12T00:55:30.349Z,2.17
2017-10-12T00:57:57.791Z,2.23
2017-10-12T01:00:26.012Z,2.43
2017-10-12T01:02:53.457Z,2.10
2017-10-12T01:05:20.910Z,2.30
2017-10-12T01:07:48.350Z,2.40
2017-10-12T01:10:15.824Z,1.80
2017-10-12T01:12:43.282Z,2.40
2017-10-12T01:15:10.722Z,2.00
2017-10-12T01:17:38.168Z,1.70
2017-10-12T01:20:05.618Z,2.60
2017-10-12T01:22:33.851Z,2.63
2017-10-12T01:25:01.294Z,2.77
2017-10-12T01:27:29.280Z,1.90
2017-10-12T01:29:56.709Z,2.27
2017-10-12T01:32:24.142Z,2.27
2017-10-12T01:34:51.592Z,2.10
2017-10-12T01:37:19.798Z,2.13
2017-10-12T01:39:47.254Z,1.93
2017-10-12T01:42:14.683Z,2.13
2017-10-12T01:44:42.888Z,2.80
2017-10-12T01:47:10.318Z,2.33
2017-10-12T01:49:37.770Z,2.27
2017-10-12T01:52:05.974Z,2.23
2017-10-12T01:54:33.426Z,2.27
2017-10-12T01:57:00.865Z,2.70
2017-10-12T01:59:28.315Z,2.37
2017-10-12T02:01:56.523Z,2.00
2017-10-12T02:04:24.007Z,2.10
2017-10-12T02:06:51.450Z,1.97
2017-10-12T02:09:18.890Z,2.80
2017-10-12T02:11:46.363Z,2.00
2017-10-12T02:14:13.804Z,2.50
2017-10-12T02:16:41.261Z,2.10
2017-10-12T02:19:08.703Z,3.00
2017-10-12T02:21:36.147Z,2.47
2017-10-12T02:24:04.351Z,2.40
2017-10-12T02:26:31.796Z,2.23
2017-10-12T02:28:59.231Z,2.23
2017-10-12T02:31:27.458Z,1.73
2017-10-12T02:33:54.910Z,2.00
2017-10-12T02:36:22.345Z,2.10
2017-10-12T02:38:49.791Z,2.17
2017-10-12T02:41:17.224Z,2.23
2017-10-12T02:43:45.440Z,2.30
2017-10-12T02:46:12.887Z,2.57
2017-10-12T02:48:40.331Z,2.10
2017-10-12T02:51:07.762Z,2.17
2017-10-12T02:53:35.986Z,1.93
2017-10-12T02:56:03.410Z,2.40
2017-10-12T02:58:31.640Z,2.47
2017-10-12T03:00:59.091Z,2.57
2017-10-12T03:03:26.534Z,2.27
2017-10-12T03:05:53.988Z,1.80
2017-10-12T03:08:21.419Z,1.90
2017-10-12T03:10:49.641Z,1.80
2017-10-12T03:13:17.086Z,1.77
2017-10-12T03:15:44.540Z,2.50
2017-10-12T03:18:11.991Z,2.13
2017-10-12T03:20:39.443Z,2.33
2017-10-12T03:23:06.872Z,2.00
2017-10-12T03:25:35.659Z,1.97
2017-10-12T03:28:03.868Z,2.33
2017-10-12T03:30:31.308Z,3.30
2017-10-12T03:32:58.762Z,2.30
2017-10-12T03:35:26.194Z,2.30
2017-10-12T03:37:54.413Z,3.13
2017-10-12T03:40:21.852Z,1.80
2017-10-12T03:42:49.306Z,2.57
2017-10-12T03:45:16.743Z,2.67
2017-10-12T03:47:44.968Z,1.90
2017-10-12T03:50:12.404Z,2.20
2017-10-12T03:52:39.875Z,2.17
2017-10-12T03:55:07.315Z,2.40
2017-10-12T03:57:34.749Z,2.67
2017-10-12T04:00:02.727Z,1.97
2017-10-12T04:02:30.917Z,2.57
2017-10-12T04:04:58.363Z,2.13
2017-10-12T04:07:25.799Z,3.13
2017-10-12T04:09:54.033Z,5.10
2017-10-12T04:12:21.482Z,3.03
2017-10-12T04:14:48.935Z,2.90
2017-10-12T04:17:16.387Z,2.37
2017-10-12T04:19:43.851Z,2.37
2017-10-12T04:22:11.300Z,2.13
2017-10-12T04:24:38.727Z,2.00
2017-10-12T04:27:06.948Z,2.63
2017-10-12T04:29:34.388Z,2.30
2017-10-12T04:32:01.821Z,1.93
2017-10-12T04:34:29.259Z,2.20
2017-10-12T04:36:57.476Z,1.80
2017-10-12T04:39:24.903Z,2.00
2017-10-12T04:41:53.136Z,3.87
2017-10-12T04:44:20.569Z,2.33
2017-10-12T04:46:48.036Z,2.20
2017-10-12T04:49:15.491Z,2.53
2017-10-12T04:51:42.926Z,3.10
2017-10-12T04:54:10.366Z,2.60
2017-10-12T04:56:37.822Z,2.50
2017-10-12T04:59:06.038Z,2.30
2017-10-12T05:01:33.476Z,2.33
2017-10-12T05:04:00.923Z,2.40
2017-10-12T05:06:28.364Z,2.10
2017-10-12T05:08:56.579Z,2.60
2017-10-12T05:11:24.019Z,1.80
2017-10-12T05:13:51.455Z,1.97
2017-10-12T05:16:19.666Z,2.73
2017-10-12T05:18:47.123Z,1.70
2017-10-12T05:21:14.581Z,2.60
2017-10-12T05:23:42.016Z,1.60
2017-10-12T05:26:09.446Z,1.90
2017-10-12T05:28:37.658Z,1.80
2017-10-12T05:31:05.086Z,2.07
2017-10-12T05:33:33.307Z,1.97
2017-10-12T05:36:00.749Z,1.63
2017-10-12T05:38:28.183Z,1.60
2017-10-12T05:40:55.637Z,2.07
2017-10-12T05:43:23.837Z,2.00
2017-10-12T05:45:51.292Z,2.33
2017-10-12T05:48:18.731Z,2.03
2017-10-12T05:50:46.178Z,2.13
2017-10-12T05:53:14.375Z,1.77
2017-10-12T05:55:41.832Z,1.70
2017-10-12T05:58:09.259Z,2.70
2017-10-12T06:00:37.499Z,1.70
2017-10-12T06:03:04.942Z,2.37
2017-10-12T06:05:32.374Z,1.57
2017-10-12T06:07:59.827Z,1.50
2017-10-12T06:10:27.260Z,1.77
2017-10-12T06:12:55.477Z,1.80
2017-10-12T06:15:22.915Z,1.70
2017-10-12T06:17:50.363Z,1.60
2017-10-12T06:20:17.803Z,1.87
2017-10-12T06:22:46.024Z,1.83
2017-10-12T06:25:13.463Z,1.90
2017-10-12T06:27:40.943Z,2.50
2017-10-12T06:30:09.015Z,1.63
2017-10-12T06:32:36.463Z,1.40
2017-10-12T06:35:03.910Z,1.77
2017-10-12T06:37:31.368Z,1.90
2017-10-12T06:39:58.808Z,1.30
2017-10-12T06:42:26.251Z,2.10
2017-10-12T06:44:54.480Z,1.90
2017-10-12T06:47:21.921Z,2.17
2017-10-12T06:49:49.351Z,2.03
2017-10-12T06:52:17.568Z,2.57
2017-10-12T06:54:45.015Z,2.30
2017-10-12T06:57:12.471Z,2.13
2017-10-12T06:59:39.910Z,1.80
2017-10-12T07:02:07.361Z,1.77
2017-10-12T07:04:35.559Z,2.57
2017-10-12T07:07:03.028Z,2.20
2017-10-12T07:09:30.469Z,1.77
2017-10-12T07:11:57.900Z,2.20
2017-10-12T07:14:25.351Z,2.97
2017-10-12T07:16:53.563Z,2.33
2017-10-12T07:19:21.021Z,2.13
2017-10-12T07:21:48.474Z,2.20
2017-10-12T07:24:15.928Z,2.50
2017-10-12T07:26:43.379Z,1.80
2017-10-12T07:29:10.816Z,1.73
2017-10-12T07:31:39.031Z,2.40
2017-10-12T07:34:06.479Z,3.10
2017-10-12T07:36:33.935Z,1.80
2017-10-12T07:39:01.376Z,2.80
2017-10-12T07:41:28.824Z,2.00
2017-10-12T07:43:56.261Z,2.30
2017-10-12T07:46:24.497Z,2.57
2017-10-12T07:48:51.941Z,2.53
2017-10-12T07:51:19.383Z,2.00
2017-10-12T07:53:46.987Z,2.43
2017-10-12T07:56:14.439Z,1.67
2017-10-12T07:58:41.891Z,2.20
2017-10-12T08:01:09.346Z,2.43
2017-10-12T08:03:36.796Z,2.70
2017-10-12T08:06:04.237Z,2.37
2017-10-12T08:08:31.683Z,2.40
2017-10-12T08:10:59.128Z,2.30
2017-10-12T08:13:26.734Z,2.50
2017-10-12T08:15:54.181Z,3.47
2017-10-12T08:18:21.622Z,2.53
2017-10-12T08:20:49.090Z,3.07
2017-10-12T08:23:16.523Z,3.83
2017-10-12T08:25:43.971Z,3.10
2017-10-12T08:28:11.415Z,3.47
2017-10-12T08:30:39.642Z,3.63
2017-10-12T08:33:07.088Z,3.43
2017-10-12T08:35:34.545Z,3.67
2017-10-12T08:38:01.984Z,2.87
2017-10-12T08:40:29.462Z,3.43
2017-10-12T08:42:56.897Z,3.23
2017-10-12T08:45:24.336Z,2.90
2017-10-12T08:47:52.561Z,2.73
2017-10-12T08:50:20.083Z,3.33
2017-10-12T08:52:47.527Z,3.10
2017-10-12T08:55:15.734Z,3.80
2017-10-12T08:57:43.195Z,4.00
2017-10-12T09:00:10.631Z,3.10
2017-10-12T09:02:38.083Z,3.70
2017-10-12T09:05:06.305Z,3.00
2017-10-12T09:07:33.759Z,2.87
2017-10-12T09:10:01.211Z,3.33
2017-10-12T09:12:28.651Z,4.47
2017-10-12T09:14:56.115Z,3.30
2017-10-12T09:17:23.569Z,3.20
2017-10-12T09:19:51.068Z,2.70
2017-10-12T09:22:18.503Z,3.57
2017-10-12T09:24:45.955Z,3.03
2017-10-12T09:27:13.401Z,2.40
2017-10-12T09:29:40.856Z,3.63
2017-10-12T09:32:08.295Z,2.70
2017-10-12T09:34:35.772Z,2.97
2017-10-12T09:37:03.212Z,2.00
2017-10-12T09:39:30.647Z,2.10
2017-10-12T09:41:58.872Z,2.60
2017-10-12T09:44:26.315Z,2.70
2017-10-12T09:46:53.772Z,2.17
2017-10-12T09:49:21.211Z,2.90
2017-10-12T09:51:48.664Z,2.20
2017-10-12T09:54:16.096Z,2.07
2017-10-12T09:56:43.541Z,1.87
2017-10-12T09:59:10.971Z,1.70
2017-10-12T10:01:38.442Z,2.03
2017-10-12T10:04:05.879Z,1.53
2017-10-12T10:06:33.327Z,1.80
2017-10-12T10:09:00.780Z,1.40
2017-10-12T10:11:28.206Z,1.97
2017-10-12T10:13:56.458Z,1.63
2017-10-12T10:16:23.875Z,1.70
2017-10-12T10:18:51.314Z,1.70
2017-10-12T10:21:18.742Z,1.73
2017-10-12T10:23:46.978Z,2.03
2017-10-12T10:26:14.427Z,1.73
2017-10-12T10:28:41.878Z,1.70
2017-10-12T10:31:09.319Z,2.10
2017-10-12T10:33:36.760Z,2.33
2017-10-12T10:36:04.974Z,2.20
2017-10-12T10:38:32.414Z,2.40
2017-10-12T10:40:59.868Z,1.43
2017-10-12T10:43:27.294Z,1.97
2017-10-12T10:45:55.523Z,2.00
2017-10-12T10:48:22.962Z,1.27
2017-10-12T10:50:50.386Z,1.83
2017-10-12T10:53:18.619Z,2.90
2017-10-12T10:55:46.058Z,1.57
2017-10-12T10:58:13.512Z,1.77
2017-10-12T11:00:40.978Z,1.60
2017-10-12T11:03:08.435Z,1.67
2017-10-12T11:05:35.884Z,1.60
2017-10-12T11:08:03.350Z,2.17
2017-10-12T11:10:30.794Z,2.10
2017-10-12T11:12:58.224Z,1.53
2017-10-12T11:15:26.431Z,2.30
2017-10-12T11:17:53.922Z,1.90
2017-10-12T11:20:22.160Z,1.87
2017-10-12T11:22:49.594Z,1.73
2017-10-12T11:25:17.039Z,2.00
2017-10-12T11:27:45.245Z,2.00
2017-10-12T11:30:12.688Z,1.50
2017-10-12T11:32:40.123Z,2.10
2017-10-12T11:35:08.346Z,1.97
2017-10-12T11:37:35.795Z,1.60
2017-10-12T11:40:03.236Z,2.33
2017-10-12T11:42:30.681Z,1.87
2017-10-12T11:44:58.882Z,1.80
2017-10-12T11:47:26.336Z,1.73
2017-10-12T11:49:53.798Z,2.00
2017-10-12T11:52:21.253Z,2.20
2017-10-12T11:54:48.715Z,1.20
2017-10-12T11:57:16.169Z,1.90
2017-10-12T11:59:43.626Z,2.30
2017-10-12T12:02:11.063Z,1.67
2017-10-12T12:04:38.503Z,2.73
2017-10-12T12:07:06.709Z,1.50
2017-10-12T12:09:34.153Z,3.10
2017-10-12T12:12:01.574Z,1.63
2017-10-12T12:14:29.028Z,1.50
2017-10-12T12:16:56.463Z,2.17
2017-10-12T12:19:23.924Z,2.10
2017-10-12T12:21:51.363Z,1.80
2017-10-12T12:24:18.844Z,2.00
2017-10-12T12:26:46.287Z,1.40
2017-10-12T12:29:13.729Z,1.30
2017-10-12T12:31:41.180Z,1.70
2017-10-12T12:34:08.612Z,2.07
2017-10-12T12:36:36.824Z,3.27
2017-10-12T12:39:04.271Z,2.57
2017-10-12T12:41:31.727Z,2.80
2017-10-12T12:43:59.583Z,1.80
2017-10-12T12:46:27.044Z,1.50
2017-10-12T12:48:54.479Z,1.40
2017-10-12T12:51:22.706Z,1.60
2017-10-12T12:53:50.151Z,1.40
2017-10-12T12:56:17.603Z,1.30
2017-10-12T12:58:45.060Z,1.67
2017-10-12T13:01:12.499Z,1.67
2017-10-12T13:03:39.952Z,1.23
2017-10-12T13:06:07.390Z,1.37
2017-10-12T13:08:35.603Z,1.87
2017-10-12T13:11:03.039Z,1.63
2017-10-12T13:13:30.487Z,1.37
2017-10-12T13:15:57.928Z,1.77
2017-10-12T13:18:26.167Z,1.90
2017-10-12T13:20:53.607Z,2.07
2017-10-12T13:23:21.056Z,1.43
2017-10-12T13:25:48.499Z,2.20
2017-10-12T13:28:15.936Z,1.20
2017-10-12T13:30:44.148Z,1.43
2017-10-12T13:33:11.589Z,1.33
2017-10-12T13:35:39.023Z,1.43
2017-10-12T13:38:07.238Z,2.20
2017-10-12T13:40:34.690Z,1.57
2017-10-12T13:43:02.118Z,1.70
2017-10-12T13:45:30.324Z,1.77
2017-10-12T13:47:57.778Z,2.00
2017-10-12T13:50:25.211Z,1.50
2017-10-12T13:52:53.424Z,1.40
2017-10-12T13:55:20.869Z,1.70
2017-10-12T13:57:48.323Z,2.40
2017-10-12T14:00:15.762Z,1.40
2017-10-12T14:02:43.224Z,2.13
2017-10-12T14:05:10.648Z,1.33
2017-10-12T14:07:38.088Z,1.90
2017-10-12T14:10:05.533Z,1.97
2017-10-12T14:12:32.976Z,2.20
2017-10-12T14:15:00.424Z,1.27
2017-10-12T14:17:27.886Z,1.80
2017-10-12T14:19:55.342Z,1.50
2017-10-12T14:22:22.780Z,1.60
2017-10-12T14:24:50.211Z,1.40
2017-10-12T14:27:18.427Z,1.40
2017-10-12T14:29:45.868Z,1.60
2017-10-12T14:32:13.328Z,1.50
2017-10-12T14:34:40.762Z,1.13
2017-10-12T14:37:08.976Z,1.40
2017-10-12T14:39:36.455Z,1.30
2017-10-12T14:42:04.013Z,1.20
2017-10-12T14:44:31.459Z,1.60
2017-10-12T14:46:58.919Z,1.10
2017-10-12T14:49:26.362Z,2.20
2017-10-12T14:51:53.804Z,1.33
2017-10-12T14:54:21.242Z,1.77
2017-10-12T14:56:49.451Z,1.70
2017-10-12T14:59:16.907Z,1.90
2017-10-12T15:01:44.346Z,1.23
2017-10-12T15:04:11.792Z,1.63
2017-10-12T15:06:39.995Z,1.50
2017-10-12T15:09:07.452Z,1.60
2017-10-12T15:11:34.892Z,1.77
2017-10-12T15:14:02.362Z,3.23
2017-10-12T15:16:29.796Z,1.50
2017-10-12T15:18:57.240Z,2.17
2017-10-12T15:21:25.454Z,1.80
2017-10-12T15:23:52.887Z,2.00
2017-10-12T15:26:20.330Z,1.87
2017-10-12T15:28:48.536Z,2.20
2017-10-12T15:31:15.978Z,1.90
2017-10-12T15:33:43.423Z,1.63
2017-10-12T15:36:11.664Z,1.73
2017-10-12T15:38:39.115Z,1.63
2017-10-12T15:41:06.628Z,1.60
2017-10-12T15:43:34.121Z,2.07
2017-10-12T15:46:01.558Z,2.20
2017-10-12T15:48:28.993Z,1.70
2017-10-12T15:50:56.434Z,2.07
2017-10-12T15:53:24.649Z,1.63
2017-10-12T15:55:52.101Z,1.63
2017-10-12T15:58:19.542Z,2.57
2017-10-12T16:00:46.980Z,1.80
2017-10-12T16:03:15.195Z,1.33
2017-10-12T16:05:42.635Z,1.40
2017-10-12T16:08:10.107Z,1.97
2017-10-12T16:10:37.540Z,1.77
2017-10-12T16:13:05.744Z,1.73
2017-10-12T16:15:33.192Z,1.40
2017-10-12T16:18:00.628Z,1.53
2017-10-12T16:20:28.843Z,2.13
2017-10-12T16:25:23.730Z,1.80
2017-10-12T16:27:51.176Z,3.47
2017-10-12T16:30:18.654Z,2.57
2017-10-12T16:35:13.537Z,1.73
2017-10-12T16:37:41.825Z,1.80
2017-10-12T16:42:37.515Z,2.50
2017-10-12T16:45:04.958Z,3.50
2017-10-12T16:47:32.418Z,17.80
2017-10-12T16:49:59.954Z,8.20
2017-10-12T16:52:27.481Z,12.80
2017-10-12T16:54:55.692Z,21.57
2017-10-12T16:57:23.140Z,6.17
2017-10-12T16:59:50.605Z,4.30
2017-10-12T17:02:18.048Z,3.03
2017-10-12T17:04:45.499Z,2.30
2017-10-12T17:07:12.938Z,3.20
2017-10-12T17:09:41.160Z,2.53
2017-10-12T17:12:09.047Z,2.33
2017-10-12T17:14:36.511Z,2.13
2017-10-12T17:17:03.951Z,2.57
2017-10-12T17:19:31.390Z,2.30
2017-10-12T17:21:58.822Z,2.33
2017-10-12T17:24:26.265Z,2.33
2017-10-12T17:26:54.462Z,2.70
2017-10-12T17:29:21.903Z,2.80
2017-10-12T17:31:50.116Z,2.27
2017-10-12T17:34:17.558Z,2.60
2017-10-12T17:36:45.025Z,2.30
2017-10-12T17:39:13.408Z,3.00
2017-10-12T17:41:40.854Z,2.90
2017-10-12T17:44:08.314Z,2.60
2017-10-12T17:46:35.737Z,3.13
2017-10-12T17:49:03.193Z,2.97
2017-10-12T17:51:31.392Z,3.33
2017-10-12T17:53:59.607Z,3.30
2017-10-12T17:56:27.051Z,2.27
2017-10-12T17:58:54.507Z,3.00
2017-10-12T18:01:21.957Z,3.20
2017-10-12T18:03:49.409Z,2.90
2017-10-12T18:06:16.854Z,3.10
2017-10-12T18:08:44.281Z,2.40
2017-10-12T18:11:11.727Z,3.10
2017-10-12T18:13:39.923Z,2.83
2017-10-12T18:16:07.371Z,3.00
2017-10-12T18:18:36.395Z,3.50
2017-10-12T18:21:03.859Z,2.53
2017-10-12T18:23:31.288Z,2.70
2017-10-12T18:25:59.493Z,3.00
2017-10-12T18:28:26.925Z,2.33
2017-10-12T18:30:54.395Z,2.70
2017-10-12T18:33:21.830Z,2.20
2017-10-12T18:35:49.262Z,3.50
2017-10-12T18:38:16.819Z,2.70
2017-10-12T18:40:44.275Z,2.47
2017-10-12T18:43:11.708Z,2.83
2017-10-12T18:45:39.143Z,2.90
2017-10-12T18:48:06.589Z,1.93
2017-10-12T18:50:34.031Z,2.30
2017-10-12T18:53:02.266Z,3.20
2017-10-12T18:55:29.711Z,3.50
2017-10-12T18:57:57.187Z,3.60
2017-10-12T19:00:24.640Z,3.10
2017-10-12T19:02:52.084Z,2.90
2017-10-12T19:05:19.541Z,3.20
2017-10-12T19:07:46.989Z,2.67
2017-10-12T19:12:41.871Z,3.33
2017-10-12T19:15:09.321Z,3.20
2017-10-12T19:17:36.755Z,2.50
2017-10-12T19:20:04.208Z,2.83
2017-10-12T19:22:31.655Z,2.43
2017-10-12T19:24:59.130Z,2.90
2017-10-12T19:27:27.326Z,2.60
2017-10-12T19:29:54.770Z,3.37
2017-10-12T19:32:22.984Z,3.37
2017-10-12T19:34:50.439Z,3.00
2017-10-12T19:37:17.899Z,2.87
2017-10-12T19:39:45.358Z,3.60
2017-10-12T19:42:13.424Z,2.63
2017-10-12T19:44:40.863Z,2.30
2017-10-12T19:47:08.319Z,2.80
2017-10-12T19:49:35.759Z,2.80
2017-10-12T19:52:03.992Z,3.17
2017-10-12T19:54:31.435Z,2.93
2017-10-12T19:56:58.867Z,2.97
2017-10-12T19:59:26.351Z,2.97
2017-10-12T20:01:53.801Z,2.90
2017-10-12T20:04:21.282Z,2.77
2017-10-12T20:06:49.473Z,2.30
2017-10-12T20:09:16.919Z,3.87
2017-10-12T20:11:44.424Z,2.60
2017-10-12T20:16:39.316Z,2.97
2017-10-12T20:19:06.775Z,2.50
2017-10-12T20:21:34.991Z,3.53
2017-10-12T20:26:29.901Z,3.20
2017-10-12T20:31:24.800Z,2.77
2017-10-12T20:33:52.239Z,3.10
2017-10-12T20:36:20.459Z,3.87
2017-10-12T20:38:47.915Z,3.77
2017-10-12T20:41:15.353Z,4.37
2017-10-12T20:43:42.792Z,4.17
2017-10-12T20:46:11.036Z,5.50
2017-10-12T20:48:38.480Z,5.37
2017-10-12T20:51:05.922Z,4.90
2017-10-12T20:53:33.398Z,4.03
2017-10-12T20:56:00.835Z,3.40
2017-10-12T20:58:28.287Z,3.53
2017-10-12T21:00:55.739Z,3.07
2017-10-12T21:03:23.190Z,2.80
2017-10-12T21:05:50.628Z,2.63
2017-10-12T21:08:18.111Z,3.50
2017-10-12T21:10:45.544Z,2.97
2017-10-12T21:13:13.012Z,3.53
2017-10-12T21:15:40.461Z,2.77
2017-10-12T21:18:07.948Z,3.13
2017-10-12T21:20:35.407Z,2.90
2017-10-12T21:23:02.855Z,2.50
2017-10-12T21:25:30.310Z,3.40
2017-10-12T21:27:57.764Z,4.30
2017-10-12T21:30:25.216Z,3.03
2017-10-12T21:32:52.650Z,3.40
2017-10-12T21:35:20.127Z,4.57
2017-10-12T21:37:47.555Z,3.60
2017-10-12T21:40:14.999Z,3.30
2017-10-12T21:42:42.455Z,3.30
2017-10-12T21:45:09.883Z,2.67
2017-10-12T21:47:37.343Z,2.60
2017-10-12T21:50:04.793Z,3.37
2017-10-12T21:52:32.235Z,2.80
2017-10-12T21:54:59.675Z,3.10
2017-10-12T21:57:27.110Z,2.70
2017-10-12T21:59:55.319Z,3.23
2017-10-12T22:02:22.777Z,3.50
2017-10-12T22:04:50.220Z,3.23
2017-10-12T22:07:17.663Z,3.57
2017-10-12T22:09:45.115Z,2.80
2017-10-12T22:12:13.358Z,3.03
2017-10-12T22:14:40.796Z,2.90
2017-10-12T22:17:08.235Z,3.13
2017-10-12T22:19:35.700Z,3.40
2017-10-12T22:22:03.152Z,3.97
2017-10-12T22:24:30.599Z,3.73
2017-10-12T22:26:58.050Z,3.23
2017-10-12T22:29:25.491Z,2.67
2017-10-12T22:31:53.711Z,3.00
2017-10-12T22:34:21.168Z,2.60
2017-10-12T22:36:48.627Z,3.97
2017-10-12T22:39:16.068Z,2.60
2017-10-12T22:41:43.533Z,2.77
2017-10-12T22:44:10.970Z,2.67
2017-10-12T22:46:38.407Z,2.20
2017-10-12T22:49:06.626Z,2.80
2017-10-12T22:51:34.069Z,3.60
2017-10-12T22:54:01.520Z,2.50
2017-10-12T22:56:28.962Z,2.57
2017-10-12T22:58:56.419Z,2.20
2017-10-12T23:01:23.859Z,2.93
2017-10-12T23:03:52.099Z,2.50
2017-10-12T23:06:19.616Z,3.40
2017-10-12T23:08:48.421Z,3.37
2017-10-12T23:11:15.877Z,2.80
2017-10-12T23:13:43.308Z,3.13
2017-10-12T23:16:11.523Z,3.67
2017-10-12T23:18:38.969Z,3.00
2017-10-12T23:21:06.457Z,2.73
2017-10-12T23:23:33.904Z,3.40
2017-10-12T23:26:01.375Z,2.70
2017-10-12T23:28:28.819Z,2.83
2017-10-12T23:30:56.267Z,3.03
2017-10-12T23:33:23.722Z,3.27
2017-10-12T23:35:51.175Z,3.93
2017-10-12T23:38:18.622Z,3.00
2017-10-12T23:40:46.071Z,3.83
2017-10-12T23:43:13.522Z,2.93
2017-10-12T23:45:40.967Z,2.57
2017-10-12T23:48:08.427Z,2.90
2017-10-12T23:50:35.867Z,2.50
2017-10-12T23:53:03.335Z,2.60
2017-10-12T23:55:30.777Z,2.90
2017-10-12T23:57:58.208Z,2.80
